createdAt,value
2018-03-15T00:00:08.809Z,99.90
2018-03-15T00:02:12.244Z,99.90
2018-03-15T00:04:14.961Z,99.90
2018-03-15T00:06:17.632Z,99.90
2018-03-15T00:08:20.324Z,99.90
2018-03-15T00:10:23.798Z,99.90
2018-03-15T00:12:26.484Z,99.90
2018-03-15T00:14:29.172Z,99.90
2018-03-15T00:16:32.605Z,99.90
2018-03-15T00:18:35.509Z,99.90
2018-03-15T00:20:38.311Z,99.90
2018-03-15T00:22:40.969Z,99.90
2018-03-15T00:24:44.443Z,99.90
2018-03-15T00:26:47.215Z,99.90
2018-03-15T00:28:49.899Z,99.90
2018-03-15T00:30:52.634Z,99.90
2018-03-15T00:32:56.095Z,99.90
2018-03-15T00:35:00.306Z,99.90
2018-03-15T00:37:02.980Z,99.90
2018-03-15T00:39:05.641Z,99.90
2018-03-15T00:41:08.422Z,99.90
2018-03-15T00:43:11.094Z,99.90
2018-03-15T00:45:13.812Z,99.90
2018-03-15T00:47:16.468Z,99.90
2018-03-15T00:49:19.138Z,99.90
2018-03-15T00:51:21.821Z,99.90
2018-03-15T00:53:24.490Z,99.90
2018-03-15T00:55:27.236Z,99.90
2018-03-15T00:57:29.953Z,99.90
2018-03-15T00:59:32.637Z,99.90
2018-03-15T01:01:35.336Z,99.90
2018-03-15T01:03:38.783Z,99.90
2018-03-15T01:05:41.448Z,99.90
2018-03-15T01:07:44.163Z,99.90
2018-03-15T01:09:46.867Z,99.90
2018-03-15T01:11:50.330Z,99.90
2018-03-15T01:13:53.024Z,99.90
2018-03-15T01:15:55.695Z,99.90
2018-03-15T01:17:58.404Z,99.90
2018-03-15T01:20:01.113Z,99.90
2018-03-15T01:22:03.799Z,99.90
2018-03-15T01:24:07.270Z,99.90
2018-03-15T01:26:10.031Z,99.90
2018-03-15T01:28:12.730Z,99.90
2018-03-15T01:30:15.404Z,99.90
2018-03-15T01:32:18.097Z,99.90
2018-03-15T01:34:20.764Z,99.90
2018-03-15T01:36:23.441Z,99.90
2018-03-15T01:38:26.164Z,99.90
2018-03-15T01:40:28.902Z,99.90
2018-03-15T01:42:31.609Z,99.90
2018-03-15T01:44:34.300Z,99.90
2018-03-15T01:46:37.745Z,99.90
2018-03-15T01:48:40.453Z,99.90
2018-03-15T01:50:43.313Z,99.90
2018-03-15T01:52:46.080Z,99.90
2018-03-15T01:54:48.770Z,99.90
2018-03-15T01:56:51.454Z,99.90
2018-03-15T01:58:54.152Z,99.90
2018-03-15T02:00:57.594Z,99.90
2018-03-15T02:03:00.304Z,99.90
2018-03-15T02:05:03.032Z,99.90
2018-03-15T02:07:05.714Z,99.90
2018-03-15T02:09:08.548Z,99.90
2018-03-15T02:11:11.489Z,99.90
2018-03-15T02:13:14.178Z,99.90
2018-03-15T02:15:16.853Z,99.90
2018-03-15T02:17:19.534Z,99.90
2018-03-15T02:19:22.268Z,99.90
2018-03-15T02:21:24.937Z,99.90
2018-03-15T02:23:28.431Z,99.90
2018-03-15T02:25:31.874Z,99.90
2018-03-15T02:27:34.565Z,99.90
2018-03-15T02:29:37.271Z,99.90
2018-03-15T02:31:40.697Z,99.90
2018-03-15T02:33:43.395Z,99.90
2018-03-15T02:35:46.065Z,99.90
2018-03-15T02:37:48.738Z,99.90
2018-03-15T02:39:51.450Z,99.90
2018-03-15T02:41:54.122Z,99.90
2018-03-15T02:43:56.914Z,99.90
2018-03-15T02:45:59.596Z,99.90
2018-03-15T02:48:03.049Z,99.90
2018-03-15T02:50:05.762Z,99.90
2018-03-15T02:52:08.465Z,99.90
2018-03-15T02:54:11.148Z,99.90
2018-03-15T02:56:13.860Z,99.90
2018-03-15T02:58:16.542Z,99.90
2018-03-15T03:00:19.232Z,99.90
2018-03-15T03:02:21.892Z,99.90
2018-03-15T03:04:24.570Z,99.90
2018-03-15T03:06:27.264Z,99.90
2018-03-15T03:08:29.958Z,99.90
2018-03-15T03:10:33.417Z,99.90
2018-03-15T03:12:36.866Z,99.90
2018-03-15T03:14:39.541Z,99.90
2018-03-15T03:16:42.287Z,99.90
2018-03-15T03:18:45.140Z,99.90
2018-03-15T03:20:48.038Z,99.90
2018-03-15T03:22:50.789Z,99.90
2018-03-15T03:24:53.466Z,99.90
2018-03-15T03:26:56.160Z,99.90
2018-03-15T03:28:58.848Z,99.90
2018-03-15T03:31:01.559Z,99.90
2018-03-15T03:33:04.238Z,99.90
2018-03-15T03:35:07.659Z,99.90
2018-03-15T03:37:10.354Z,99.90
2018-03-15T03:39:13.824Z,99.90
2018-03-15T03:41:16.742Z,99.90
2018-03-15T03:43:19.422Z,99.90
2018-03-15T03:45:22.080Z,99.90
2018-03-15T03:47:24.757Z,99.90
2018-03-15T03:49:27.435Z,99.90
2018-03-15T03:51:30.115Z,99.90
2018-03-15T03:53:32.864Z,99.90
2018-03-15T03:55:35.556Z,99.90
2018-03-15T03:57:38.240Z,99.90
2018-03-15T03:59:40.924Z,99.90
2018-03-15T04:01:43.777Z,99.90
2018-03-15T04:03:46.491Z,99.90
2018-03-15T04:05:49.180Z,99.90
2018-03-15T04:07:53.387Z,99.90
2018-03-15T04:09:56.062Z,99.90
2018-03-15T04:11:58.805Z,99.90
2018-03-15T04:14:01.586Z,99.90
2018-03-15T04:16:04.274Z,99.90
2018-03-15T04:18:06.968Z,99.90
2018-03-15T04:20:09.694Z,99.90
2018-03-15T04:22:12.376Z,99.90
2018-03-15T04:24:15.076Z,99.90
2018-03-15T04:26:17.836Z,99.90
2018-03-15T04:28:20.539Z,99.90
2018-03-15T04:30:23.234Z,99.90
2018-03-15T04:32:25.983Z,99.90
2018-03-15T04:34:28.692Z,99.90
2018-03-15T04:36:31.371Z,99.90
2018-03-15T04:38:34.093Z,99.90
2018-03-15T04:40:36.813Z,99.90
2018-03-15T04:42:39.502Z,99.90
2018-03-15T04:44:42.211Z,99.90
2018-03-15T04:46:44.915Z,99.90
2018-03-15T04:48:47.613Z,99.90
2018-03-15T04:50:50.304Z,99.90
2018-03-15T04:52:52.992Z,99.90
2018-03-15T04:54:56.469Z,99.90
2018-03-15T04:56:59.175Z,99.90
2018-03-15T04:59:02.641Z,99.90
2018-03-15T05:01:05.340Z,99.90
2018-03-15T05:03:08.777Z,99.90
2018-03-15T05:05:11.525Z,99.90
2018-03-15T05:07:14.198Z,99.90
2018-03-15T05:09:16.878Z,99.90
2018-03-15T05:11:19.740Z,99.90
2018-03-15T05:13:23.177Z,99.90
2018-03-15T05:15:25.876Z,99.90
2018-03-15T05:17:28.572Z,99.90
2018-03-15T05:19:31.273Z,99.90
2018-03-15T05:21:34.744Z,99.90
2018-03-15T05:23:37.425Z,99.90
2018-03-15T05:25:40.148Z,99.90
2018-03-15T05:27:42.836Z,99.90
2018-03-15T05:29:45.522Z,99.90
2018-03-15T05:31:48.230Z,99.90
2018-03-15T05:33:50.961Z,99.90
2018-03-15T05:35:53.689Z,99.90
2018-03-15T05:37:56.377Z,99.90
2018-03-15T05:39:59.978Z,99.90
2018-03-15T05:42:03.436Z,99.90
2018-03-15T05:44:06.338Z,99.90
2018-03-15T05:46:09.119Z,99.90
2018-03-15T05:48:11.925Z,99.90
2018-03-15T05:50:14.660Z,99.90
2018-03-15T05:52:17.347Z,99.90
2018-03-15T05:54:20.021Z,99.90
2018-03-15T05:56:22.697Z,99.90
2018-03-15T05:58:25.397Z,99.90
2018-03-15T06:00:28.865Z,99.90
2018-03-15T06:02:31.565Z,99.90
2018-03-15T06:04:35.026Z,99.90
2018-03-15T06:06:37.838Z,99.90
2018-03-15T06:08:42.044Z,99.90
2018-03-15T06:10:45.487Z,99.90
2018-03-15T06:12:48.221Z,99.90
2018-03-15T06:14:51.661Z,99.90
2018-03-15T06:16:54.366Z,99.90
2018-03-15T06:18:57.051Z,99.90
2018-03-15T06:20:59.738Z,99.90
2018-03-15T06:23:03.224Z,99.90
2018-03-15T06:25:05.906Z,99.90
2018-03-15T06:27:08.604Z,99.90
2018-03-15T06:29:12.122Z,99.90
2018-03-15T06:31:14.816Z,99.90
2018-03-15T06:33:17.611Z,99.90
2018-03-15T06:35:20.366Z,99.90
2018-03-15T06:37:23.072Z,99.90
2018-03-15T06:39:26.025Z,99.90
2018-03-15T06:41:28.710Z,99.90
2018-03-15T06:43:31.594Z,99.90
2018-03-15T06:45:34.280Z,99.90
2018-03-15T06:47:37.004Z,99.90
2018-03-15T06:49:39.699Z,99.90
2018-03-15T06:51:42.375Z,99.90
2018-03-15T06:53:45.188Z,99.90
2018-03-15T06:55:47.902Z,99.90
2018-03-15T06:57:51.400Z,99.90
2018-03-15T06:59:54.899Z,99.90
2018-03-15T07:01:58.382Z,99.90
2018-03-15T07:04:01.868Z,99.90
2018-03-15T07:06:04.569Z,99.90
2018-03-15T07:10:11.302Z,99.90
2018-03-15T07:12:13.974Z,99.90
2018-03-15T07:14:16.694Z,99.90
2018-03-15T07:16:20.160Z,99.90
2018-03-15T07:18:22.914Z,99.90
2018-03-15T07:20:25.637Z,99.90
2018-03-15T07:22:29.098Z,99.90
2018-03-15T07:24:31.798Z,99.90
2018-03-15T07:26:34.525Z,99.90
2018-03-15T07:28:37.216Z,99.90
2018-03-15T07:30:39.946Z,99.90
2018-03-15T07:32:43.491Z,99.90
2018-03-15T08:14:08.573Z,99.90
2018-03-15T08:16:11.260Z,99.90
2018-03-15T08:18:13.938Z,99.90
2018-03-15T08:20:16.627Z,99.90
2018-03-15T08:22:19.315Z,99.90
2018-03-15T08:24:22.755Z,99.90
2018-03-15T08:26:25.541Z,99.90
2018-03-15T08:28:28.286Z,99.90
2018-03-15T08:30:30.969Z,99.90
2018-03-15T08:32:33.799Z,99.90
2018-03-15T08:34:36.488Z,99.90
2018-03-15T08:36:39.229Z,99.90
2018-03-15T08:38:41.935Z,99.90
2018-03-15T08:40:44.633Z,99.90
2018-03-15T08:42:47.357Z,99.90
2018-03-15T08:44:50.048Z,99.90
2018-03-15T08:46:52.760Z,99.90
2018-03-15T08:48:56.225Z,99.90
2018-03-15T08:50:58.936Z,99.90
2018-03-15T08:53:02.407Z,99.90
2018-03-15T08:55:05.086Z,99.90
2018-03-15T08:57:07.804Z,99.90
2018-03-15T08:59:10.516Z,99.90
2018-03-15T09:01:13.185Z,99.90
2018-03-15T09:03:15.893Z,99.90
2018-03-15T09:05:18.732Z,99.90
2018-03-15T09:07:21.428Z,99.90
2018-03-15T09:09:24.151Z,99.90
2018-03-15T09:11:26.848Z,99.90
2018-03-15T09:13:29.619Z,99.90
2018-03-15T09:15:32.319Z,99.90
2018-03-15T09:17:35.032Z,99.90
2018-03-15T09:19:37.753Z,99.90
2018-03-15T09:21:40.460Z,99.90
2018-03-15T09:23:45.343Z,99.90
2018-03-15T09:25:48.804Z,99.90
2018-03-15T09:27:51.471Z,99.90
2018-03-15T09:29:54.896Z,99.90
2018-03-15T09:31:57.619Z,99.90
2018-03-15T09:46:26.472Z,97.60
2018-03-15T09:48:29.200Z,98.00
2018-03-15T09:50:32.721Z,96.90
2018-03-15T09:52:35.434Z,96.90
2018-03-15T09:54:38.210Z,97.70
2018-03-15T09:56:40.904Z,98.50
2018-03-15T09:58:43.584Z,99.00
2018-03-15T10:00:46.298Z,99.60
2018-03-15T10:02:49.035Z,99.60
2018-03-15T10:04:51.735Z,97.80
2018-03-15T10:06:55.217Z,97.70
2018-03-15T10:08:57.951Z,97.70
2018-03-15T10:11:01.872Z,99.90
2018-03-15T10:13:04.604Z,99.90
2018-03-15T10:15:07.371Z,99.90
2018-03-15T10:17:10.858Z,99.90
2018-03-15T10:19:13.540Z,99.90
2018-03-15T10:21:16.278Z,99.90
2018-03-15T10:23:19.007Z,99.90
2018-03-15T10:25:26.392Z,99.90
2018-03-15T10:27:24.513Z,99.90
2018-03-15T10:29:27.969Z,99.90
2018-03-15T10:31:30.699Z,99.90
2018-03-15T10:33:38.479Z,99.90
2018-03-15T10:35:41.256Z,99.90
2018-03-15T10:37:44.112Z,99.90
2018-03-15T10:39:46.839Z,99.90
2018-03-15T10:41:50.770Z,99.90
2018-03-15T10:43:53.486Z,99.90
2018-03-15T10:45:56.201Z,99.90
2018-03-15T10:47:58.985Z,99.90
2018-03-15T10:50:02.500Z,99.90
2018-03-15T10:52:06.030Z,99.90
2018-03-15T10:54:08.728Z,99.90
2018-03-15T10:56:11.837Z,99.90
2018-03-15T10:58:14.566Z,99.90
2018-03-15T11:00:17.262Z,99.90
2018-03-15T11:02:20.067Z,99.90
2018-03-15T11:04:28.675Z,99.90
2018-03-15T11:06:37.125Z,99.90
2018-03-15T11:08:39.863Z,99.90
2018-03-15T11:10:42.600Z,99.90
2018-03-15T11:12:45.341Z,99.90
2018-03-15T11:14:48.048Z,99.90
2018-03-15T11:16:50.784Z,99.90
2018-03-15T11:18:53.513Z,99.90
2018-03-15T11:20:56.342Z,99.90
2018-03-15T11:22:59.844Z,99.90
2018-03-15T11:25:03.348Z,99.90
2018-03-15T11:27:06.187Z,99.90
2018-03-15T11:29:08.938Z,99.90
2018-03-15T11:31:11.707Z,99.90
2018-03-15T11:33:14.497Z,99.90
2018-03-15T11:35:17.215Z,99.90
2018-03-15T11:37:19.921Z,99.90
2018-03-15T11:39:23.475Z,99.90
2018-03-15T11:41:26.209Z,99.90
2018-03-15T11:43:28.899Z,99.90
2018-03-15T11:45:31.610Z,99.90
2018-03-15T11:47:34.322Z,99.90
2018-03-15T11:49:37.066Z,99.90
2018-03-15T11:51:39.795Z,99.90
2018-03-15T11:53:42.499Z,99.90
2018-03-15T11:55:45.311Z,99.90
2018-03-15T11:57:48.018Z,99.90
2018-03-15T11:59:51.523Z,99.90
2018-03-15T12:01:54.225Z,99.90
2018-03-15T12:03:56.939Z,99.90
2018-03-15T12:05:59.720Z,99.90
2018-03-15T12:08:02.400Z,99.90
2018-03-15T12:10:05.915Z,99.90
2018-03-15T12:12:08.636Z,99.90
2018-03-15T12:14:11.366Z,99.90
2018-03-15T12:16:14.124Z,99.90
2018-03-15T12:18:16.832Z,99.90
2018-03-15T12:20:20.354Z,99.90
2018-03-15T12:22:23.052Z,99.90
2018-03-15T12:24:25.770Z,99.90
2018-03-15T12:26:28.469Z,99.90
2018-03-15T12:28:31.157Z,99.90
2018-03-15T12:30:33.849Z,99.90
2018-03-15T12:32:36.600Z,99.90
2018-03-15T12:34:40.066Z,99.90
2018-03-15T12:36:42.762Z,99.90
2018-03-15T12:38:46.218Z,99.90
2018-03-15T12:40:48.930Z,99.90
2018-03-15T12:42:52.387Z,99.90
2018-03-15T12:44:55.062Z,99.90
2018-03-15T12:46:57.769Z,99.90
2018-03-15T12:49:01.262Z,99.90
2018-03-15T12:51:04.737Z,99.90
2018-03-15T12:53:07.445Z,99.90
2018-03-15T12:55:10.954Z,99.90
2018-03-15T12:57:13.668Z,99.90
2018-03-15T12:59:16.345Z,99.90
2018-03-15T13:01:19.032Z,99.90
2018-03-15T13:03:21.739Z,99.90
2018-03-15T13:05:24.595Z,99.90
2018-03-15T13:07:27.319Z,99.90
2018-03-15T13:09:30.006Z,99.90
2018-03-15T13:11:32.718Z,99.90
2018-03-15T13:13:35.410Z,99.90
2018-03-15T13:15:38.244Z,99.90
2018-03-15T13:17:41.036Z,99.90
2018-03-15T13:19:43.688Z,99.90
2018-03-15T13:21:46.519Z,99.90
2018-03-15T13:23:49.233Z,99.90
2018-03-15T13:25:52.689Z,99.90
2018-03-15T13:27:55.398Z,99.90
2018-03-15T13:29:58.873Z,99.90
2018-03-15T13:32:01.539Z,99.90
2018-03-15T13:34:04.238Z,99.90
2018-03-15T13:36:07.684Z,99.90
2018-03-15T13:38:10.359Z,99.90
2018-03-15T13:40:13.055Z,99.90
2018-03-15T13:42:15.740Z,99.90
2018-03-15T13:44:18.514Z,99.90
2018-03-15T13:46:21.171Z,99.90
2018-03-15T13:48:23.869Z,99.90
2018-03-15T13:50:26.611Z,99.90
2018-03-15T13:52:29.324Z,99.90
2018-03-15T13:54:32.021Z,99.90
2018-03-15T13:56:35.479Z,99.90
2018-03-15T13:58:38.378Z,99.90
2018-03-15T14:00:41.068Z,99.90
2018-03-15T14:02:43.737Z,99.90
2018-03-15T14:04:46.455Z,99.90
2018-03-15T14:06:49.125Z,99.90
2018-03-15T14:08:51.854Z,99.90
2018-03-15T14:10:54.553Z,99.90
2018-03-15T14:12:57.293Z,99.90
2018-03-15T14:15:00.019Z,99.90
2018-03-15T14:17:03.493Z,99.90
2018-03-15T14:19:06.700Z,99.90
2018-03-15T14:21:10.167Z,99.90
2018-03-15T14:23:12.896Z,99.90
2018-03-15T14:25:16.453Z,99.90
2018-03-15T14:27:19.897Z,99.90
2018-03-15T14:29:22.612Z,99.90
2018-03-15T14:31:25.738Z,99.90
2018-03-15T14:33:29.466Z,99.90
2018-03-15T14:35:32.189Z,99.90
2018-03-15T14:37:35.129Z,99.90
2018-03-15T14:39:37.822Z,99.90
2018-03-15T14:41:40.511Z,99.90
2018-03-15T14:43:43.213Z,99.90
2018-03-15T14:45:46.689Z,99.90
2018-03-15T14:47:49.538Z,99.90
2018-03-15T14:49:52.211Z,99.90
2018-03-15T14:51:54.936Z,99.90
2018-03-15T14:53:57.636Z,99.90
2018-03-15T14:56:00.405Z,99.90
2018-03-15T14:58:03.885Z,99.90
2018-03-15T15:00:06.593Z,99.90
2018-03-15T15:02:09.337Z,99.90
2018-03-15T15:04:12.185Z,99.90
2018-03-15T15:06:14.902Z,99.90
2018-03-15T15:08:17.603Z,99.90
2018-03-15T15:10:20.297Z,99.90
2018-03-15T15:12:22.992Z,99.90
2018-03-15T15:14:25.718Z,99.90
2018-03-15T15:16:29.222Z,99.90
2018-03-15T15:18:32.674Z,99.90
2018-03-15T15:20:35.348Z,99.90
2018-03-15T15:22:38.056Z,99.90
2018-03-15T15:24:41.502Z,99.90
2018-03-15T15:26:44.198Z,99.90
2018-03-15T15:28:46.896Z,99.90
2018-03-15T15:30:49.575Z,99.90
2018-03-15T15:32:53.039Z,99.90
2018-03-15T15:34:55.696Z,99.90
2018-03-15T15:36:58.392Z,99.90
2018-03-15T15:39:01.088Z,99.90
2018-03-15T15:41:03.792Z,99.90
2018-03-15T15:43:06.486Z,99.90
2018-03-15T15:45:09.161Z,99.90
2018-03-15T15:47:11.852Z,99.90
2018-03-15T15:49:14.534Z,99.90
2018-03-15T15:51:17.208Z,99.90
2018-03-15T15:53:19.902Z,99.90
2018-03-15T15:55:23.932Z,99.90
2018-03-15T15:57:26.620Z,99.90
2018-03-15T15:59:30.065Z,99.90
2018-03-15T16:01:32.760Z,99.90
2018-03-15T16:03:35.471Z,99.90
2018-03-15T16:05:38.928Z,99.90
2018-03-15T16:07:41.643Z,99.90
2018-03-15T16:09:45.118Z,99.90
2018-03-15T16:11:47.851Z,99.90
2018-03-15T16:13:50.545Z,99.90
2018-03-15T16:15:53.204Z,99.90
2018-03-15T16:17:55.875Z,99.90
2018-03-15T16:19:58.612Z,99.90
2018-03-15T16:22:02.173Z,99.90
2018-03-15T16:24:04.878Z,99.90
2018-03-15T16:26:07.641Z,99.90
2018-03-15T16:28:10.342Z,99.90
2018-03-15T16:30:13.062Z,99.90
2018-03-15T16:32:15.740Z,99.90
2018-03-15T16:34:18.466Z,99.90
2018-03-15T16:36:21.156Z,99.90
2018-03-15T16:38:24.598Z,99.90
2018-03-15T16:40:27.324Z,99.90
2018-03-15T16:42:30.817Z,99.90
2018-03-15T16:44:33.556Z,99.90
2018-03-15T16:46:36.275Z,99.90
2018-03-15T16:48:39.721Z,99.90
2018-03-15T16:50:42.537Z,99.90
2018-03-15T16:52:45.262Z,99.90
2018-03-15T16:54:48.060Z,99.90
2018-03-15T16:56:51.949Z,99.90
2018-03-15T16:58:54.759Z,99.90
2018-03-15T17:00:57.528Z,99.90
2018-03-15T17:03:00.294Z,99.90
2018-03-15T17:05:03.164Z,99.90
2018-03-15T17:07:07.241Z,99.90
2018-03-15T17:09:10.700Z,99.90
2018-03-15T17:11:14.112Z,99.90
2018-03-15T17:13:16.797Z,99.90
2018-03-15T17:15:20.274Z,99.90
2018-03-15T17:17:22.936Z,99.90
2018-03-15T17:19:26.397Z,99.90
2018-03-15T17:21:29.116Z,99.90
2018-03-15T17:23:31.813Z,99.90
2018-03-15T17:25:34.482Z,99.90
2018-03-15T17:27:37.198Z,99.90
2018-03-15T17:29:39.889Z,99.90
2018-03-15T17:31:42.580Z,99.90
2018-03-15T17:33:45.364Z,99.90
2018-03-15T17:35:48.048Z,99.90
2018-03-15T17:37:50.731Z,99.90
2018-03-15T17:39:53.406Z,99.90
2018-03-15T17:41:56.140Z,99.90
2018-03-15T17:43:58.803Z,99.90
2018-03-15T17:46:01.636Z,99.90
2018-03-15T17:48:04.361Z,99.90
2018-03-15T17:50:07.020Z,99.90
2018-03-15T17:52:10.484Z,99.90
2018-03-15T17:54:13.335Z,99.90
2018-03-15T17:56:16.008Z,99.90
2018-03-15T17:58:20.866Z,99.90
2018-03-15T18:00:23.557Z,99.90
2018-03-15T18:02:26.310Z,99.90
2018-03-15T18:04:28.990Z,99.90
2018-03-15T18:06:31.759Z,99.90
2018-03-15T18:08:34.461Z,99.90
2018-03-15T18:10:37.199Z,99.90
2018-03-15T18:12:39.909Z,99.90
2018-03-15T18:14:42.613Z,99.90
2018-03-15T18:16:46.053Z,99.90
2018-03-15T18:18:48.758Z,99.90
2018-03-15T18:20:51.438Z,99.90
2018-03-15T18:22:54.189Z,99.90
2018-03-15T18:24:57.009Z,99.90
2018-03-15T18:26:59.770Z,99.90
2018-03-15T18:29:02.519Z,99.90
2018-03-15T18:31:05.287Z,99.90
2018-03-15T18:33:07.980Z,99.90
2018-03-15T18:35:10.709Z,99.90
2018-03-15T18:37:14.154Z,99.90
2018-03-15T18:39:16.865Z,99.90
2018-03-15T18:41:19.536Z,99.90
2018-03-15T18:43:23.011Z,99.90
2018-03-15T18:45:25.792Z,99.90
2018-03-15T18:47:28.488Z,99.90
2018-03-15T18:49:31.987Z,99.90
2018-03-15T18:51:34.875Z,99.90
2018-03-15T18:53:38.323Z,99.90
2018-03-15T18:55:41.070Z,99.90
2018-03-15T18:57:43.767Z,99.90
2018-03-15T18:59:46.576Z,99.90
2018-03-15T19:01:49.272Z,99.90
2018-03-15T19:03:51.930Z,99.90
2018-03-15T19:05:54.741Z,99.90
2018-03-15T19:07:58.186Z,99.90
2018-03-15T19:10:00.994Z,99.90
2018-03-15T19:12:03.714Z,99.90
2018-03-15T19:14:06.402Z,99.90
2018-03-15T19:16:09.128Z,99.90
2018-03-15T19:18:11.844Z,99.90
2018-03-15T19:20:14.650Z,99.90
2018-03-15T19:22:17.366Z,99.90
2018-03-15T19:24:20.858Z,99.90
2018-03-15T19:26:24.038Z,99.90
2018-03-15T19:28:26.728Z,99.90
2018-03-15T19:30:30.324Z,99.90
2018-03-15T19:32:33.161Z,99.90
2018-03-15T19:34:35.986Z,99.90
2018-03-15T19:36:39.574Z,99.90
2018-03-15T19:38:42.269Z,99.90
2018-03-15T19:40:45.736Z,99.90
2018-03-15T19:42:48.503Z,99.90
2018-03-15T19:44:51.340Z,99.90
2018-03-15T19:46:54.096Z,99.90
2018-03-15T19:48:57.707Z,99.90
2018-03-15T19:51:01.205Z,99.90
2018-03-15T19:53:04.092Z,99.90
2018-03-15T19:55:06.900Z,99.90
2018-03-15T19:57:09.699Z,99.90
2018-03-15T19:59:13.161Z,99.90
2018-03-15T20:01:15.997Z,99.90
2018-03-15T20:03:19.515Z,99.90
2018-03-15T20:05:23.033Z,99.90
2018-03-15T20:07:25.728Z,99.90
2018-03-15T20:09:28.431Z,99.90
2018-03-15T20:11:31.110Z,99.90
2018-03-15T20:13:34.010Z,99.90
2018-03-15T20:15:53.272Z,99.90
2018-03-15T20:17:56.975Z,99.90
2018-03-15T20:20:02.904Z,99.90
2018-03-15T20:22:05.615Z,99.90
2018-03-15T20:24:14.841Z,99.90
2018-03-15T20:26:18.307Z,99.90
2018-03-15T20:28:26.784Z,99.90
2018-03-15T20:30:29.477Z,99.90
2018-03-15T20:32:37.999Z,99.90
2018-03-15T20:34:40.716Z,99.90
2018-03-15T20:36:44.397Z,99.90
2018-03-15T20:38:47.065Z,99.90
2018-03-15T20:40:55.408Z,99.90
2018-03-15T20:42:58.848Z,99.90
2018-03-15T20:45:01.536Z,99.90
2018-03-15T20:47:10.009Z,99.90
2018-03-15T20:49:12.760Z,99.90
2018-03-15T20:51:16.254Z,99.90
2018-03-15T20:53:19.834Z,99.90
2018-03-15T20:55:24.615Z,99.90
2018-03-15T20:57:27.306Z,99.90
2018-03-15T20:59:29.999Z,99.90
2018-03-15T21:01:32.742Z,99.90
2018-03-15T21:03:35.931Z,99.90
2018-03-15T21:05:38.668Z,99.90
2018-03-15T21:07:41.354Z,99.90
2018-03-15T21:09:44.816Z,99.90
2018-03-15T21:11:47.518Z,99.90
2018-03-15T21:13:50.964Z,99.90
2018-03-15T21:15:53.653Z,99.90
2018-03-15T21:17:56.382Z,99.90
2018-03-15T21:19:59.081Z,99.90
2018-03-15T21:22:01.814Z,99.90
2018-03-15T21:24:05.282Z,99.90
2018-03-15T21:26:07.965Z,99.90
2018-03-15T21:28:10.674Z,99.90
2018-03-15T21:30:14.149Z,99.90
2018-03-15T21:32:16.872Z,99.90
2018-03-15T21:34:19.551Z,99.90
2018-03-15T21:36:22.287Z,99.90
2018-03-15T21:38:25.798Z,99.90
2018-03-15T21:40:28.509Z,99.90
2018-03-15T21:42:31.221Z,99.90
2018-03-15T21:44:33.922Z,99.90
2018-03-15T21:46:37.391Z,99.90
2018-03-15T21:48:40.099Z,99.90
2018-03-15T21:50:43.597Z,99.90
2018-03-15T21:52:46.292Z,99.90
2018-03-15T21:54:48.977Z,99.90
2018-03-15T21:56:51.654Z,99.90
2018-03-15T21:58:54.435Z,99.90
2018-03-15T22:00:57.108Z,99.90
2018-03-15T22:02:59.795Z,99.90
2018-03-15T22:05:02.711Z,99.90
2018-03-15T22:07:05.405Z,99.90
2018-03-15T22:09:08.878Z,99.90
2018-03-15T22:11:11.637Z,99.90
2018-03-15T22:13:14.334Z,99.90
2018-03-15T22:15:17.110Z,99.90
2018-03-15T22:17:19.849Z,99.90
2018-03-15T22:19:22.566Z,99.90
2018-03-15T22:21:25.253Z,99.90
2018-03-15T22:23:27.938Z,99.90
2018-03-15T22:25:31.409Z,99.90
2018-03-15T22:27:34.094Z,99.90
2018-03-15T22:29:36.800Z,99.90
2018-03-15T22:31:39.472Z,99.90
2018-03-15T22:33:42.934Z,99.90
2018-03-15T22:35:45.647Z,99.90
2018-03-15T22:37:48.356Z,99.90
2018-03-15T22:39:51.077Z,99.90
2018-03-15T22:41:53.767Z,99.90
2018-03-15T22:43:57.234Z,99.90
2018-03-15T22:45:59.958Z,99.90
2018-03-15T22:48:02.647Z,99.90
2018-03-15T22:50:05.378Z,99.90
2018-03-15T22:52:08.119Z,99.90
2018-03-15T22:54:10.853Z,99.90
2018-03-15T22:56:14.316Z,99.90
2018-03-15T22:58:16.992Z,99.90
2018-03-15T23:00:19.684Z,99.90
2018-03-15T23:02:22.352Z,99.90
2018-03-15T23:04:25.038Z,99.90
2018-03-15T23:06:27.741Z,99.90
2018-03-15T23:08:30.444Z,99.90
2018-03-15T23:10:33.156Z,99.90
2018-03-15T23:12:35.830Z,99.90
2018-03-15T23:14:38.545Z,99.90
2018-03-15T23:16:42.135Z,99.90
2018-03-15T23:18:45.644Z,99.90
2018-03-15T23:20:48.464Z,99.90
2018-03-15T23:22:51.142Z,99.90
2018-03-15T23:24:54.595Z,99.90
2018-03-15T23:26:57.323Z,99.90
2018-03-15T23:29:00.025Z,99.90
2018-03-15T23:31:03.531Z,99.90
2018-03-15T23:33:06.224Z,99.90
2018-03-15T23:35:08.997Z,99.90
2018-03-15T23:37:11.706Z,99.90
2018-03-15T23:39:14.389Z,99.90
2018-03-15T23:41:17.866Z,99.90
2018-03-15T23:43:20.573Z,99.90
2018-03-15T23:45:23.266Z,99.90
2018-03-15T23:47:25.989Z,99.90
2018-03-15T23:49:28.666Z,99.90
2018-03-15T23:51:31.402Z,99.90
2018-03-15T23:53:34.855Z,99.90
2018-03-15T23:55:37.546Z,99.90
2018-03-15T23:57:40.264Z,99.90
2018-03-15T23:59:43.706Z,99.90
